Time;durP1;ratioP1;P1;durP2;ratioP2;P2;SDS_P1;SDS_P2;PMS_P1;PMS_P2;Temp;Humidity;BMP_temperature;BMP_pressure;BME280_temperature;BME280_humidity;BME280_pressure;Samples;Min_cycle;Max_cycle;Signal;HPM_P1;HPM_P2
2021/08/10 00:00:21;;;;;;;18.30;16.90;;;14.60;99.90;;;;;;5057014;28;20483;-68
2021/08/10 00:02:49;;;;;;;17.87;16.77;;;14.60;99.90;;;;;;5051371;28;20471;-69
2021/08/10 00:05:16;;;;;;;18.27;16.43;;;14.60;99.90;;;;;;5047541;28;20455;-67
2021/08/10 00:07:43;;;;;;;18.60;17.20;;;14.50;99.90;;;;;;5049260;28;21352;-68
2021/08/10 00:10:11;;;;;;;19.33;17.40;;;14.50;99.90;;;;;;5052508;28;20494;-67
2021/08/10 00:12:38;;;;;;;18.77;17.00;;;14.50;99.90;;;;;;5044095;28;20471;-68
2021/08/10 00:15:08;;;;;;;17.30;16.10;;;14.50;99.90;;;;;;5049572;28;20511;-69
2021/08/10 00:17:35;;;;;;;17.20;16.20;;;14.50;99.90;;;;;;5044906;28;20482;-68
2021/08/10 00:20:03;;;;;;;18.60;17.17;;;14.40;99.90;;;;;;5043940;28;20494;-67
2021/08/10 00:22:32;;;;;;;18.40;17.30;;;14.40;99.90;;;;;;5051415;28;20460;-67
2021/08/10 00:24:59;;;;;;;19.80;17.97;;;14.30;99.90;;;;;;5051684;28;20468;-67
2021/08/10 00:27:26;;;;;;;18.70;17.40;;;14.20;99.90;;;;;;5047020;28;20466;-67
2021/08/10 00:29:53;;;;;;;19.70;18.13;;;14.10;99.90;;;;;;5051740;28;20459;-67
2021/08/10 00:32:20;;;;;;;23.43;18.57;;;14.10;99.90;;;;;;5053159;28;20459;-68
2021/08/10 00:34:47;;;;;;;20.10;18.17;;;14.00;99.90;;;;;;5046650;28;20812;-69
2021/08/10 00:37:16;;;;;;;19.07;17.53;;;14.00;99.90;;;;;;5048867;28;20463;-66
2021/08/10 00:39:43;;;;;;;19.53;18.03;;;14.00;99.90;;;;;;5047519;28;20965;-67
2021/08/10 00:42:09;;;;;;;19.57;17.77;;;14.00;99.90;;;;;;5056743;28;20459;-68
2021/08/10 00:44:36;;;;;;;18.43;17.43;;;14.00;99.90;;;;;;5051629;28;20474;-67
2021/08/10 00:47:04;;;;;;;18.60;17.00;;;14.00;99.90;;;;;;5053032;28;20467;-68
2021/08/10 00:49:31;;;;;;;19.03;17.70;;;14.00;99.90;;;;;;5046824;28;20514;-67
2021/08/10 00:51:59;;;;;;;18.10;16.80;;;14.00;99.90;;;;;;5050377;28;20590;-67
2021/08/10 00:54:27;;;;;;;18.67;17.23;;;14.00;99.90;;;;;;5049823;28;20890;-68
2021/08/10 00:56:54;;;;;;;18.53;17.00;;;14.00;99.90;;;;;;5050745;28;20926;-68
2021/08/10 00:59:22;;;;;;;19.57;17.87;;;13.90;99.90;;;;;;5051713;28;20515;-69
2021/08/10 01:01:49;;;;;;;19.20;17.80;;;13.90;99.90;;;;;;5050197;28;20942;-66
2021/08/10 01:04:16;;;;;;;18.90;16.87;;;14.00;99.90;;;;;;5052503;28;20463;-68
2021/08/10 01:06:52;;;;;;;18.03;17.00;;;14.00;99.90;;;;;;5049605;28;20459;-68
2021/08/10 01:09:27;;;;;;;18.63;17.37;;;14.00;99.90;;;;;;5053484;28;20470;-68
2021/08/10 01:12:02;;;;;;;17.97;16.57;;;14.10;99.90;;;;;;5053202;28;20455;-69
2021/08/10 01:14:35;;;;;;;18.13;16.63;;;14.10;99.90;;;;;;5055216;28;20471;-68
2021/08/10 01:17:05;;;;;;;18.30;17.07;;;14.20;99.90;;;;;;5055439;28;20574;-67
2021/08/10 01:19:47;;;;;;;17.57;16.20;;;14.30;99.90;;;;;;5054804;28;20504;-69
2021/08/10 01:22:18;;;;;;;18.43;16.90;;;14.30;99.90;;;;;;5054137;28;20454;-68
2021/08/10 01:24:49;;;;;;;18.27;16.90;;;14.40;99.90;;;;;;5055378;28;20459;-68
2021/08/10 01:27:33;;;;;;;17.20;16.10;;;14.40;99.90;;;;;;5054817;28;21002;-68
2021/08/10 01:30:08;;;;;;;18.23;16.93;;;14.40;99.90;;;;;;5048044;28;20455;-69
2021/08/10 01:32:37;;;;;;;18.30;16.87;;;14.50;99.90;;;;;;5055706;28;20707;-70
2021/08/10 01:35:05;;;;;;;17.63;16.37;;;14.50;99.90;;;;;;5052403;28;21040;-68
2021/08/10 01:37:34;;;;;;;18.00;16.60;;;14.50;99.90;;;;;;5051273;28;20467;-68
2021/08/10 01:40:05;;;;;;;19.60;17.43;;;14.50;99.90;;;;;;5055743;28;20487;-69
2021/08/10 01:42:33;;;;;;;18.30;16.80;;;14.60;99.90;;;;;;5057816;28;20471;-68
2021/08/10 01:45:02;;;;;;;18.30;16.73;;;14.60;99.90;;;;;;5058503;28;20459;-70
2021/08/10 01:47:31;;;;;;;18.63;17.27;;;14.60;99.90;;;;;;5057200;28;20511;-69
2021/08/10 01:50:00;;;;;;;18.57;16.70;;;14.60;99.90;;;;;;5055515;28;20486;-68
2021/08/10 01:52:28;;;;;;;16.63;15.73;;;14.70;99.90;;;;;;5051456;28;20467;-68
2021/08/10 01:54:58;;;;;;;17.83;16.40;;;14.80;99.90;;;;;;5058965;28;20463;-68
2021/08/10 01:57:27;;;;;;;18.90;17.80;;;14.80;99.90;;;;;;5053193;28;21052;-67
2021/08/10 01:59:57;;;;;;;18.53;17.03;;;14.80;99.90;;;;;;5055219;28;20469;-68
2021/08/10 02:02:24;;;;;;;18.03;16.47;;;14.80;99.90;;;;;;5054012;28;20478;-68
2021/08/10 02:04:52;;;;;;;17.83;16.43;;;14.80;99.90;;;;;;5053615;28;20462;-68
2021/08/10 02:07:23;;;;;;;21.10;16.20;;;14.80;99.90;;;;;;5054967;28;20965;-69
2021/08/10 02:09:50;;;;;;;15.53;14.73;;;14.90;99.90;;;;;;5057638;28;20466;-70
2021/08/10 02:12:18;;;;;;;17.40;16.20;;;14.80;99.90;;;;;;5052429;28;20456;-68
2021/08/10 02:14:45;;;;;;;15.80;14.80;;;14.80;99.90;;;;;;5051870;28;20942;-68
2021/08/10 02:17:16;;;;;;;17.20;15.97;;;14.80;99.90;;;;;;5057499;28;20865;-68
2021/08/10 02:19:44;;;;;;;17.33;16.23;;;14.90;99.90;;;;;;5053049;28;20545;-68
2021/08/10 02:22:13;;;;;;;18.13;16.40;;;14.80;99.90;;;;;;5054411;28;20953;-68
2021/08/10 02:24:45;;;;;;;16.23;14.90;;;14.90;99.90;;;;;;5057471;28;20462;-68
2021/08/10 02:27:17;;;;;;;22.00;16.13;;;14.90;99.90;;;;;;5050407;28;20470;-68
2021/08/10 02:29:46;;;;;;;20.27;18.57;;;14.80;99.90;;;;;;5056326;28;20467;-68
2021/08/10 02:32:17;;;;;;;21.60;19.40;;;14.80;99.90;;;;;;5051501;28;20547;-69
2021/08/10 02:34:45;;;;;;;22.83;20.77;;;14.80;99.90;;;;;;5052468;28;20467;-68
2021/08/10 02:37:15;;;;;;;49.83;21.37;;;14.80;99.90;;;;;;5054668;28;20456;-70
2021/08/10 02:39:45;;;;;;;91.07;21.80;;;14.80;99.90;;;;;;5054534;28;20460;-71
2021/08/10 02:42:15;;;;;;;19.73;18.03;;;14.70;99.90;;;;;;5053232;28;20463;-71
2021/08/10 02:44:44;;;;;;;19.83;17.83;;;14.70;99.90;;;;;;5050870;28;20939;-70
2021/08/10 02:47:11;;;;;;;20.03;16.97;;;14.70;99.90;;;;;;5052023;28;20568;-70
2021/08/10 02:49:41;;;;;;;27.83;17.83;;;14.60;99.90;;;;;;5047492;28;20472;-70
2021/08/10 02:52:09;;;;;;;18.87;17.20;;;14.50;99.90;;;;;;5051797;28;20815;-72
2021/08/10 02:54:37;;;;;;;18.70;17.20;;;14.60;99.90;;;;;;5055412;28;20463;-72
2021/08/10 02:57:10;;;;;;;20.30;16.87;;;14.50;99.90;;;;;;5050414;28;20460;-71
2021/08/10 02:59:45;;;;;;;18.83;17.40;;;14.50;99.90;;;;;;5053503;28;20466;-69
2021/08/10 03:02:18;;;;;;;18.10;16.80;;;14.40;99.90;;;;;;5057720;28;21071;-69
2021/08/10 03:04:50;;;;;;;19.17;17.23;;;14.40;99.90;;;;;;5055545;28;20451;-70
2021/08/10 03:07:19;;;;;;;25.63;18.23;;;14.30;99.90;;;;;;5055090;28;20466;-69
2021/08/10 03:09:49;;;;;;;19.73;17.70;;;14.30;99.90;;;;;;5051605;28;20452;-71
2021/08/10 03:12:20;;;;;;;19.23;17.90;;;14.30;99.90;;;;;;5056334;28;20472;-69
2021/08/10 03:14:50;;;;;;;21.10;19.00;;;14.40;99.90;;;;;;5054388;28;20470;-69
2021/08/10 03:17:19;;;;;;;19.27;17.67;;;14.30;99.90;;;;;;5056182;28;20991;-69
2021/08/10 03:19:47;;;;;;;18.50;17.30;;;14.40;99.90;;;;;;5054225;28;20543;-69
2021/08/10 03:22:15;;;;;;;17.87;16.63;;;14.50;99.90;;;;;;5050129;28;20942;-72
2021/08/10 03:24:44;;;;;;;18.30;16.73;;;14.50;99.90;;;;;;5049785;28;20471;-72
2021/08/10 03:27:12;;;;;;;20.60;18.30;;;14.50;99.90;;;;;;5052411;28;20929;-71
2021/08/10 03:29:41;;;;;;;18.20;16.80;;;14.50;99.90;;;;;;5049706;28;20503;-69
2021/08/10 03:32:09;;;;;;;18.97;17.53;;;14.40;99.90;;;;;;5059596;28;20815;-69
2021/08/10 03:34:37;;;;;;;18.43;16.50;;;14.40;99.90;;;;;;5053954;28;20459;-70
2021/08/10 03:37:04;;;;;;;19.80;17.10;;;14.40;99.90;;;;;;5052889;28;20455;-69
2021/08/10 03:39:33;;;;;;;17.83;16.53;;;14.40;99.90;;;;;;5054170;28;20464;-69
2021/08/10 03:42:01;;;;;;;17.57;16.37;;;14.40;99.90;;;;;;5056989;28;20495;-69
2021/08/10 03:44:29;;;;;;;17.57;16.10;;;14.40;99.90;;;;;;5061026;28;20457;-69
2021/08/10 03:46:57;;;;;;;23.43;15.47;;;14.40;99.90;;;;;;5054041;28;20463;-69
2021/08/10 03:49:26;;;;;;;16.73;15.73;;;14.40;99.90;;;;;;5052484;28;20884;-68
2021/08/10 03:51:54;;;;;;;17.57;16.57;;;14.40;99.90;;;;;;5052483;28;20456;-71
2021/08/10 03:54:22;;;;;;;18.50;17.00;;;14.40;99.90;;;;;;5053834;28;20474;-69
2021/08/10 03:56:51;;;;;;;18.73;16.90;;;14.40;99.90;;;;;;5051320;28;20464;-71
2021/08/10 03:59:20;;;;;;;18.13;16.83;;;14.40;99.90;;;;;;5053396;28;20553;-69
2021/08/10 04:01:49;;;;;;;18.80;17.20;;;14.30;99.90;;;;;;5049204;28;20486;-69
2021/08/10 04:04:20;;;;;;;20.67;18.37;;;14.30;99.90;;;;;;5047906;28;20562;-71
2021/08/10 04:06:47;;;;;;;18.63;17.13;;;14.20;99.90;;;;;;5050137;28;20464;-68
2021/08/10 04:09:16;;;;;;;20.20;18.37;;;14.10;99.90;;;;;;5047703;28;20476;-68
2021/08/10 04:11:44;;;;;;;19.60;17.80;;;14.00;99.90;;;;;;5053525;28;20561;-68
2021/08/10 04:14:13;;;;;;;20.07;18.53;;;14.00;99.90;;;;;;5050375;28;20496;-71
2021/08/10 04:16:46;;;;;;;19.63;17.87;;;13.90;99.90;;;;;;5060920;28;20996;-69
2021/08/10 04:19:14;;;;;;;20.30;18.80;;;13.90;99.90;;;;;;5051837;28;20470;-70
2021/08/10 04:21:44;;;;;;;19.90;18.63;;;13.80;99.90;;;;;;5049331;28;20495;-68
2021/08/10 04:24:11;;;;;;;21.17;19.80;;;13.70;99.90;;;;;;5051685;28;20455;-69
2021/08/10 04:26:38;;;;;;;21.20;19.77;;;13.70;99.90;;;;;;5050569;28;20460;-71
2021/08/10 04:29:05;;;;;;;21.07;19.57;;;13.60;99.90;;;;;;5055617;28;20451;-70
2021/08/10 04:31:32;;;;;;;23.63;21.83;;;13.50;99.90;;;;;;5052400;28;20828;-68
2021/08/10 04:33:59;;;;;;;24.10;22.40;;;13.40;99.90;;;;;;5052635;28;21160;-71
2021/08/10 04:36:26;;;;;;;24.27;22.10;;;13.40;99.90;;;;;;5053757;28;20467;-68
2021/08/10 04:38:54;;;;;;;24.57;22.40;;;13.40;99.90;;;;;;5047561;28;20456;-68
2021/08/10 04:41:21;;;;;;;23.43;21.70;;;13.40;99.90;;;;;;5049307;28;20468;-71
2021/08/10 04:43:48;;;;;;;22.07;20.60;;;13.40;99.90;;;;;;5050827;28;20452;-68
2021/08/10 04:46:15;;;;;;;23.00;21.50;;;13.50;99.90;;;;;;5050251;28;20475;-69
2021/08/10 04:48:42;;;;;;;22.97;21.10;;;13.40;99.90;;;;;;5049582;28;20474;-68
2021/08/10 04:51:08;;;;;;;206.20;27.13;;;13.40;99.90;;;;;;5052614;28;20815;-68
2021/08/10 04:53:35;;;;;;;178.93;25.90;;;13.30;99.90;;;;;;5054186;28;20455;-70
2021/08/10 04:56:04;;;;;;;26.40;21.57;;;13.30;99.90;;;;;;5055191;28;20459;-68
2021/08/10 04:58:31;;;;;;;22.63;20.83;;;13.40;99.90;;;;;;5052919;28;20466;-68
2021/08/10 05:00:58;;;;;;;28.43;21.03;;;13.40;99.90;;;;;;5052789;28;20479;-68
2021/08/10 05:03:25;;;;;;;22.47;20.57;;;13.40;99.90;;;;;;5050437;28;20459;-69
2021/08/10 05:05:52;;;;;;;23.90;22.17;;;13.40;99.90;;;;;;5053379;28;20478;-68
2021/08/10 05:08:19;;;;;;;22.90;21.20;;;13.40;99.90;;;;;;5050130;28;20516;-68
2021/08/10 05:10:45;;;;;;;22.20;20.60;;;13.50;99.90;;;;;;5049349;28;20460;-70
2021/08/10 05:13:14;;;;;;;22.40;20.90;;;13.50;99.90;;;;;;5051668;28;20460;-68
2021/08/10 05:15:40;;;;;;;22.07;20.00;;;13.60;99.90;;;;;;5051012;28;20479;-68
2021/08/10 05:18:08;;;;;;;21.80;20.40;;;13.60;99.90;;;;;;5050666;28;20454;-68
2021/08/10 05:20:35;;;;;;;22.70;20.83;;;13.60;99.90;;;;;;5052697;28;20460;-68
2021/08/10 05:23:02;;;;;;;22.07;20.40;;;13.60;99.90;;;;;;5052519;28;21138;-70
2021/08/10 05:25:29;;;;;;;21.70;20.30;;;13.70;99.90;;;;;;5044867;28;20981;-70
2021/08/10 05:27:56;;;;;;;21.83;20.53;;;13.80;99.90;;;;;;5056138;28;20463;-68
2021/08/10 05:30:24;;;;;;;22.20;20.60;;;13.90;99.90;;;;;;5052398;28;21202;-68
2021/08/10 05:32:51;;;;;;;21.77;20.27;;;14.00;99.90;;;;;;5054367;28;20466;-71
2021/08/10 05:35:18;;;;;;;20.70;18.97;;;14.00;99.90;;;;;;5053507;28;20562;-68
2021/08/10 05:37:46;;;;;;;20.40;18.93;;;14.20;99.90;;;;;;5051073;28;20459;-67
2021/08/10 05:40:13;;;;;;;20.40;19.10;;;14.30;99.90;;;;;;5043368;28;20462;-70
2021/08/10 05:42:40;;;;;;;19.60;18.40;;;14.30;99.90;;;;;;5051711;28;20570;-68
2021/08/10 05:45:08;;;;;;;20.43;18.63;;;14.40;99.90;;;;;;5048533;28;20463;-71
2021/08/10 05:47:36;;;;;;;21.33;19.37;;;14.40;99.90;;;;;;5051503;28;20945;-68
2021/08/10 05:50:04;;;;;;;19.10;17.63;;;14.50;99.90;;;;;;5053185;28;20482;-68
2021/08/10 05:52:32;;;;;;;19.10;17.90;;;14.60;99.90;;;;;;5055314;28;20486;-69
2021/08/10 05:54:59;;;;;;;20.00;18.60;;;14.70;99.90;;;;;;5054815;28;20454;-69
2021/08/10 05:57:26;;;;;;;20.40;18.83;;;14.80;99.90;;;;;;5052265;28;20762;-67
2021/08/10 05:59:54;;;;;;;20.83;18.23;;;14.80;99.90;;;;;;5054567;28;20493;-68
2021/08/10 06:02:20;;;;;;;18.73;17.47;;;14.90;99.90;;;;;;5055579;28;20830;-68
2021/08/10 06:04:48;;;;;;;19.07;17.30;;;15.10;99.90;;;;;;5053911;28;20455;-68
2021/08/10 06:07:16;;;;;;;22.10;16.77;;;15.30;99.90;;;;;;5048176;28;20463;-70
2021/08/10 06:09:43;;;;;;;17.70;16.40;;;15.60;99.90;;;;;;5053326;28;20467;-70
2021/08/10 06:12:11;;;;;;;17.13;15.60;;;15.80;99.90;;;;;;5051768;28;20451;-68
2021/08/10 06:14:39;;;;;;;16.63;15.50;;;16.00;99.90;;;;;;5057613;28;21069;-68
2021/08/10 06:17:05;;;;;;;17.10;15.90;;;16.10;99.90;;;;;;5051828;28;21027;-71
2021/08/10 06:19:32;;;;;;;17.33;16.13;;;16.20;99.90;;;;;;5051237;28;20459;-70
2021/08/10 06:22:00;;;;;;;17.90;16.43;;;16.30;99.90;;;;;;5049009;28;20491;-70
2021/08/10 06:24:28;;;;;;;17.87;16.23;;;16.60;99.90;;;;;;5052046;28;20460;-68
2021/08/10 06:26:55;;;;;;;17.67;16.00;;;16.60;99.90;;;;;;5048754;28;20452;-71
2021/08/10 06:29:22;;;;;;;18.37;16.97;;;16.60;99.90;;;;;;5057046;28;20463;-70
2021/08/10 06:31:49;;;;;;;18.13;16.20;;;16.70;99.90;;;;;;5053925;28;20459;-69
2021/08/10 06:34:16;;;;;;;17.17;15.87;;;16.80;99.90;;;;;;5051217;28;20894;-71
2021/08/10 06:36:43;;;;;;;16.87;15.77;;;16.90;99.90;;;;;;5051685;28;20452;-68
2021/08/10 06:39:12;;;;;;;16.40;15.13;;;16.90;99.90;;;;;;5047777;28;20456;-68
2021/08/10 06:41:39;;;;;;;16.37;15.07;;;17.00;99.90;;;;;;5053143;28;20483;-68
2021/08/10 06:44:07;;;;;;;16.33;15.10;;;17.00;99.90;;;;;;5058349;28;20463;-67
2021/08/10 06:46:34;;;;;;;16.60;15.30;;;17.00;99.90;;;;;;5051998;28;20459;-68
2021/08/10 06:49:00;;;;;;;16.70;15.20;;;17.10;99.90;;;;;;5057691;28;20487;-68
2021/08/10 06:51:27;;;;;;;15.50;14.47;;;17.20;99.90;;;;;;5052221;28;20464;-68
2021/08/10 06:53:54;;;;;;;15.90;14.60;;;17.40;99.90;;;;;;5054002;28;20459;-67
2021/08/10 06:56:22;;;;;;;15.03;13.73;;;17.80;99.90;;;;;;5053905;28;20467;-69
2021/08/10 06:58:49;;;;;;;15.87;14.27;;;18.00;99.90;;;;;;5052380;28;20459;-68
2021/08/10 07:01:16;;;;;;;14.40;13.27;;;18.20;99.90;;;;;;5053365;28;20478;-68
2021/08/10 07:03:43;;;;;;;15.20;13.80;;;18.40;99.90;;;;;;5047896;28;20993;-69
2021/08/10 07:06:11;;;;;;;14.10;12.80;;;18.50;99.90;;;;;;5051129;28;20452;-69
2021/08/10 07:08:39;;;;;;;14.00;13.10;;;18.60;99.90;;;;;;5054975;28;20456;-68
2021/08/10 07:11:06;;;;;;;14.27;13.20;;;18.60;99.90;;;;;;5055657;28;20452;-67
2021/08/10 07:13:34;;;;;;;14.73;13.63;;;18.50;99.90;;;;;;5055764;28;20479;-68
2021/08/10 07:16:01;;;;;;;14.27;13.33;;;18.70;99.90;;;;;;5053440;28;20486;-68
2021/08/10 07:18:29;;;;;;;15.33;13.93;;;18.70;99.90;;;;;;5050953;28;20461;-67
2021/08/10 07:20:56;;;;;;;14.80;13.90;;;18.80;99.90;;;;;;5052576;28;20507;-67
2021/08/10 07:23:24;;;;;;;16.07;14.90;;;18.90;99.90;;;;;;5049772;28;20463;-67
2021/08/10 07:25:51;;;;;;;16.00;14.77;;;18.80;99.90;;;;;;5048985;28;20471;-68
2021/08/10 07:28:17;;;;;;;16.27;15.10;;;19.10;99.90;;;;;;5051394;28;20451;-68
2021/08/10 07:30:45;;;;;;;16.20;14.97;;;18.90;99.90;;;;;;5053364;28;20460;-70
2021/08/10 07:33:12;;;;;;;15.97;14.73;;;18.80;99.90;;;;;;5052555;28;20487;-69
2021/08/10 07:35:40;;;;;;;21.53;14.40;;;18.80;99.90;;;;;;5049951;28;20471;-70
2021/08/10 07:38:07;;;;;;;16.10;14.87;;;18.90;99.90;;;;;;5045651;28;20464;-67
2021/08/10 07:40:34;;;;;;;15.13;14.20;;;19.10;99.90;;;;;;5054700;28;20455;-68
2021/08/10 07:43:01;;;;;;;15.93;14.60;;;19.40;99.90;;;;;;5048617;28;20495;-68
2021/08/10 07:45:27;;;;;;;14.43;13.43;;;19.70;99.90;;;;;;5050040;28;20875;-69
2021/08/10 07:47:57;;;;;;;14.43;13.63;;;19.90;99.90;;;;;;5056010;28;20585;-70
2021/08/10 07:50:23;;;;;;;15.47;14.57;;;19.70;99.90;;;;;;5051135;28;20483;-70
2021/08/10 07:52:52;;;;;;;15.53;14.63;;;19.50;99.90;;;;;;5052423;28;20471;-68
2021/08/10 07:55:19;;;;;;;15.27;14.23;;;19.50;99.90;;;;;;5054142;28;20451;-69
2021/08/10 07:57:46;;;;;;;15.03;13.93;;;19.60;99.90;;;;;;5050243;28;20469;-70
2021/08/10 08:00:14;;;;;;;15.53;14.53;;;19.80;99.90;;;;;;5051654;28;20510;-70
2021/08/10 08:02:41;;;;;;;15.90;14.80;;;19.90;99.90;;;;;;5057497;28;20558;-68
2021/08/10 08:05:10;;;;;;;15.33;14.33;;;19.90;99.90;;;;;;5059524;28;20462;-69
2021/08/10 08:07:37;;;;;;;15.17;14.17;;;20.00;99.90;;;;;;5049612;28;20456;-68
2021/08/10 08:10:05;;;;;;;15.37;14.33;;;20.30;99.90;;;;;;5052920;28;20950;-70
2021/08/10 08:12:32;;;;;;;15.97;14.87;;;20.40;99.90;;;;;;5051603;28;20464;-68
2021/08/10 08:14:59;;;;;;;15.87;14.87;;;20.30;99.90;;;;;;5053456;28;20455;-69
2021/08/10 08:17:26;;;;;;;16.37;15.40;;;20.50;99.90;;;;;;5055013;28;20479;-68
2021/08/10 08:19:53;;;;;;;15.43;14.53;;;20.70;99.90;;;;;;5053832;28;20814;-68
2021/08/10 08:22:21;;;;;;;16.97;15.90;;;20.90;99.90;;;;;;5057468;28;20495;-71
2021/08/10 08:24:48;;;;;;;16.73;15.70;;;20.60;99.90;;;;;;5046544;28;20455;-68
2021/08/10 08:27:15;;;;;;;15.73;14.93;;;20.60;99.90;;;;;;5036271;28;20463;-68
2021/08/10 08:29:42;;;;;;;16.23;15.10;;;20.50;99.90;;;;;;5050014;28;20548;-69
2021/08/10 08:32:10;;;;;;;17.07;14.93;;;20.60;99.90;;;;;;5055290;28;20530;-68
2021/08/10 08:34:38;;;;;;;15.13;14.27;;;20.80;99.90;;;;;;5054283;28;20471;-68
2021/08/10 08:37:05;;;;;;;17.00;15.70;;;20.90;99.90;;;;;;5052607;28;20516;-69
2021/08/10 08:39:33;;;;;;;16.23;15.27;;;20.70;99.90;;;;;;5051899;28;20521;-68
2021/08/10 08:42:01;;;;;;;16.40;15.10;;;20.70;99.90;;;;;;5058379;28;20518;-70
2021/08/10 08:44:34;;;;;;;16.07;15.17;;;20.80;99.90;;;;;;5053507;28;20463;-68
2021/08/10 08:47:03;;;;;;;16.60;15.40;;;20.70;99.90;;;;;;5049827;28;20835;-69
2021/08/10 08:49:32;;;;;;;17.43;16.33;;;20.60;99.90;;;;;;5049007;28;20483;-68
2021/08/10 08:52:01;;;;;;;18.07;16.47;;;20.20;99.90;;;;;;5049527;28;20490;-68
2021/08/10 08:54:29;;;;;;;17.20;15.77;;;20.00;99.90;;;;;;5050411;28;20456;-71
2021/08/10 08:56:57;;;;;;;16.20;15.30;;;20.20;99.90;;;;;;5045305;28;20486;-68
2021/08/10 08:59:26;;;;;;;16.13;15.23;;;20.50;99.90;;;;;;5048881;28;20463;-71
2021/08/10 09:01:53;;;;;;;16.77;15.73;;;20.90;99.90;;;;;;5050510;28;20971;-68
2021/08/10 09:04:21;;;;;;;15.97;14.97;;;21.10;99.90;;;;;;5057553;28;20459;-69
2021/08/10 09:06:49;;;;;;;16.40;15.40;;;21.40;99.90;;;;;;5051214;28;20464;-68
2021/08/10 09:09:22;;;;;;;16.87;15.53;;;21.10;99.90;;;;;;5045752;28;20456;-69
2021/08/10 09:11:51;;;;;;;16.77;15.37;;;21.40;99.90;;;;;;5051821;28;20456;-71
2021/08/10 09:14:21;;;;;;;16.77;15.40;;;22.00;99.90;;;;;;5050607;28;20466;-70
2021/08/10 09:17:08;;;;;;;17.17;16.07;;;22.20;99.90;;;;;;5050252;28;20570;-68
2021/08/10 09:19:44;;;;;;;15.93;14.73;;;22.30;99.90;;;;;;5052103;28;20807;-69
2021/08/10 09:22:19;;;;;;;16.97;15.77;;;22.50;99.90;;;;;;5046606;28;20509;-69
2021/08/10 09:24:48;;;;;;;15.87;14.70;;;22.70;99.90;;;;;;5058112;28;20467;-69
2021/08/10 09:27:30;;;;;;;16.10;14.97;;;22.50;99.90;;;;;;5055114;28;20459;-68
2021/08/10 09:30:00;;;;;;;16.30;15.20;;;22.30;99.90;;;;;;5053443;28;20693;-68
2021/08/10 09:32:28;;;;;;;16.97;15.77;;;22.30;99.90;;;;;;5056658;28;20850;-70
2021/08/10 09:35:14;;;;;;;16.20;15.00;;;22.00;99.90;;;;;;5054977;28;20455;-68
2021/08/10 09:37:41;;;;;;;16.07;14.90;;;21.90;99.90;;;;;;5055744;28;20451;-70
2021/08/10 09:40:31;;;;;;;16.77;15.43;;;22.10;99.90;;;;;;5052964;28;20451;-68
2021/08/10 09:43:24;;;;;;;15.47;14.57;;;22.20;99.90;;;;;;5049121;28;20483;-68
2021/08/10 09:46:06;;;;;;;17.27;15.70;;;22.20;99.90;;;;;;5053320;28;20577;-69
2021/08/10 09:48:33;;;;;;;16.10;15.10;;;22.40;99.90;;;;;;5056466;28;20494;-70
2021/08/10 09:51:11;;;;;;;17.00;15.77;;;22.50;99.90;;;;;;5054734;28;20514;-71
2021/08/10 09:53:39;;;;;;;17.03;15.73;;;23.10;99.90;;;;;;5057856;28;20808;-70
2021/08/10 09:56:07;;;;;;;16.23;15.23;;;23.30;99.90;;;;;;5055292;28;20462;-68
2021/08/10 09:58:59;;;;;;;17.73;16.40;;;23.50;99.90;;;;;;5052833;28;20964;-68
2021/08/10 10:01:36;;;;;;;16.57;15.40;;;23.60;99.90;;;;;;5053845;28;20462;-70
2021/08/10 10:04:18;;;;;;;16.17;14.67;;;23.40;99.90;;;;;;5055238;28;20521;-68
2021/08/10 10:06:46;;;;;;;16.47;15.33;;;23.70;99.90;;;;;;5051463;28;20467;-69
2021/08/10 10:09:14;;;;;;;15.90;14.80;;;23.90;99.90;;;;;;5051895;28;20486;-69
2021/08/10 10:11:43;;;;;;;15.83;15.03;;;24.00;99.90;;;;;;5052642;28;20498;-69
2021/08/10 10:14:11;;;;;;;16.10;15.20;;;23.50;99.90;;;;;;5055808;28;20460;-69
2021/08/10 10:16:43;;;;;;;17.50;16.40;;;23.20;99.90;;;;;;5053198;28;20587;-70
2021/08/10 10:19:13;;;;;;;17.27;16.27;;;22.70;99.90;;;;;;5051954;28;20965;-72
2021/08/10 10:21:43;;;;;;;16.40;15.40;;;22.50;99.90;;;;;;5057264;28;20461;-71
2021/08/10 10:24:12;;;;;;;15.87;14.93;;;22.50;99.90;;;;;;5049913;28;20491;-71
2021/08/10 10:26:41;;;;;;;16.00;15.10;;;23.40;99.90;;;;;;5057072;28;20466;-70
2021/08/10 10:29:10;;;;;;;16.17;15.03;;;24.30;99.90;;;;;;5054144;28;20444;-68
2021/08/10 10:31:37;;;;;;;16.07;15.00;;;24.50;99.90;;;;;;5056481;28;20455;-71
2021/08/10 10:34:06;;;;;;;16.17;15.17;;;25.00;99.90;;;;;;5048286;28;20459;-68
2021/08/10 10:36:34;;;;;;;16.90;15.90;;;25.20;99.90;;;;;;5050414;28;20447;-68
2021/08/10 10:39:02;;;;;;;17.07;15.87;;;25.70;99.90;;;;;;5057510;28;20818;-69
2021/08/10 10:41:34;;;;;;;15.43;14.63;;;25.90;99.90;;;;;;5048861;28;20460;-69
2021/08/10 10:44:01;;;;;;;16.50;15.40;;;25.60;99.90;;;;;;5052223;28;20495;-69
2021/08/10 10:46:30;;;;;;;15.60;14.80;;;25.90;99.90;;;;;;5051275;28;20462;-70
2021/08/10 10:48:58;;;;;;;16.03;15.13;;;25.50;99.90;;;;;;5053239;28;20459;-72
2021/08/10 10:51:29;;;;;;;17.10;15.80;;;24.40;99.90;;;;;;5054333;28;20459;-69
2021/08/10 10:54:25;;;;;;;15.77;14.80;;;24.40;99.90;;;;;;5054951;28;20985;-69
2021/08/10 10:56:54;;;;;;;16.00;15.10;;;25.10;99.90;;;;;;5052255;28;20536;-69
2021/08/10 10:59:32;;;;;;;15.97;15.07;;;25.00;99.90;;;;;;5056941;28;20467;-71
2021/08/10 11:02:17;;;;;;;15.23;14.23;;;24.90;99.90;;;;;;5054452;28;20495;-69
2021/08/10 11:05:22;;;;;;;16.20;15.30;;;25.40;99.90;;;;;;5050851;28;20467;-71
2021/08/10 11:07:52;;;;;;;16.03;15.23;;;25.90;99.90;;;;;;5056365;28;20483;-72
2021/08/10 11:10:46;;;;;;;16.40;15.60;;;26.50;99.90;;;;;;5048233;28;20463;-70
2021/08/10 11:13:37;;;;;;;16.87;15.80;;;27.10;99.90;;;;;;5051147;28;20451;-70
2021/08/10 11:16:05;;;;;;;16.10;15.23;;;27.70;99.90;;;;;;5052218;28;20483;-70
2021/08/10 11:18:33;;;;;;;17.13;15.97;;;27.20;99.90;;;;;;5054938;28;20958;-70
2021/08/10 11:21:26;;;;;;;16.67;15.47;;;26.60;99.90;;;;;;5050365;28;20885;-73
2021/08/10 11:23:55;;;;;;;17.47;16.17;;;26.90;99.90;;;;;;5051767;28;20498;-70
2021/08/10 11:26:43;;;;;;;15.50;14.70;;;27.50;99.90;;;;;;5054062;28;20456;-69
2021/08/10 11:29:13;;;;;;;19.40;18.17;;;26.70;99.90;;;;;;5052035;28;20454;-69
2021/08/10 11:31:53;;;;;;;17.10;16.10;;;27.30;99.90;;;;;;5051150;28;20854;-72
2021/08/10 11:34:35;;;;;;;17.37;16.20;;;27.30;99.90;;;;;;5052929;28;20492;-70
2021/08/10 11:37:24;;;;;;;16.60;15.70;;;27.20;99.90;;;;;;5053972;28;20467;-68
2021/08/10 11:40:07;;;;;;;15.80;15.00;;;25.90;99.90;;;;;;5049655;28;20838;-70
2021/08/10 11:42:35;;;;;;;16.83;15.87;;;25.10;99.90;;;;;;5055684;28;20463;-70
2021/08/10 11:45:03;;;;;;;16.53;15.60;;;24.90;99.90;;;;;;5056470;28;20520;-72
2021/08/10 11:47:31;;;;;;;16.50;15.40;;;25.40;99.90;;;;;;5052279;28;20946;-71
2021/08/10 11:49:58;;;;;;;16.60;15.70;;;26.50;99.90;;;;;;5052601;28;20479;-70
2021/08/10 11:52:45;;;;;;;16.83;15.93;;;26.50;99.90;;;;;;5052680;28;20766;-71
2021/08/10 11:55:13;;;;;;;16.30;15.40;;;26.50;99.90;;;;;;5051740;28;20466;-71
2021/08/10 11:57:54;;;;;;;16.10;15.30;;;26.80;99.90;;;;;;5052711;28;20471;-71
2021/08/10 12:00:22;;;;;;;15.83;15.03;;;27.00;99.90;;;;;;5054361;28;20468;-71
2021/08/10 12:02:49;;;;;;;17.00;16.00;;;28.00;99.90;;;;;;5055632;28;20528;-71
2021/08/10 12:05:16;;;;;;;16.90;15.90;;;28.70;99.90;;;;;;5049153;28;20518;-71
2021/08/10 12:07:51;;;;;;;16.33;15.30;;;29.10;99.90;;;;;;5052127;28;20463;-70
2021/08/10 12:10:34;;;;;;;15.40;14.60;;;29.00;99.90;;;;;;5049844;28;20467;-72
2021/08/10 12:13:02;;;;;;;15.57;14.67;;;29.00;99.90;;;;;;5060868;28;20987;-71
2021/08/10 12:15:42;;;;;;;16.27;15.40;;;29.10;99.90;;;;;;5050540;28;20468;-74
2021/08/10 12:18:11;;;;;;;15.87;14.97;;;29.20;99.90;;;;;;5052381;28;20451;-71
2021/08/10 12:20:37;;;;;;;16.20;15.40;;;29.00;99.90;;;;;;5050962;28;20471;-71
2021/08/10 12:23:07;;;;;;;15.53;14.73;;;28.80;99.90;;;;;;5051094;28;20587;-71
2021/08/10 12:25:35;;;;;;;15.60;14.70;;;29.10;99.90;;;;;;5050930;28;20456;-72
2021/08/10 12:28:04;;;;;;;16.17;15.33;;;29.50;99.90;;;;;;5060665;28;20508;-73
2021/08/10 12:30:33;;;;;;;17.40;15.90;;;29.20;99.90;;;;;;5053250;28;20953;-70
2021/08/10 12:33:23;;;;;;;16.40;15.60;;;28.80;99.90;;;;;;5054557;28;20474;-73
2021/08/10 12:36:05;;;;;;;16.90;15.93;;;28.60;99.90;;;;;;5050434;28;20463;-70
2021/08/10 12:38:32;;;;;;;16.70;15.70;;;28.30;99.90;;;;;;5053143;28;20456;-69